Time;durP1;ratioP1;P1;durP2;ratioP2;P2;SDS_P1;SDS_P2;PMS_P1;PMS_P2;Temp;Humidity;BMP_temperature;BMP_pressure;BME280_temperature;BME280_humidity;BME280_pressure;Samples;Min_cycle;Max_cycle;Signal;HPM_P1;HPM_P2
2023/09/28 00:00:35;;;;;;;10.50;10.30;;;19.20;99.90;;;;;;5084406;28;20460;-67
2023/09/28 00:02:43;;;;;;;10.30;10.10;;;19.10;99.90;;;;;;5088547;28;20868;-66
2023/09/28 00:05:12;;;;;;;10.77;10.57;;;19.10;99.90;;;;;;5075406;28;21590;-66
2023/09/28 00:07:40;;;;;;;11.30;11.00;;;19.10;99.90;;;;;;5075018;28;20462;-66
2023/09/28 00:10:08;;;;;;;10.90;10.70;;;19.10;99.90;;;;;;5087779;28;20863;-67
2023/09/28 00:12:34;;;;;;;10.80;10.60;;;19.10;99.90;;;;;;5086998;28;20499;-67
2023/09/28 00:15:01;;;;;;;11.30;11.00;;;19.10;99.90;;;;;;5082533;28;20466;-66
2023/09/28 00:17:26;;;;;;;10.80;10.60;;;19.00;99.90;;;;;;5088571;28;20336;-66
2023/09/28 00:19:53;;;;;;;11.20;10.90;;;19.10;99.90;;;;;;5091448;28;20733;-66
2023/09/28 00:22:20;;;;;;;11.27;10.97;;;19.10;99.90;;;;;;5085141;28;20671;-66
2023/09/28 00:24:47;;;;;;;10.90;10.70;;;19.00;99.90;;;;;;5071760;28;20861;-66
2023/09/28 00:27:13;;;;;;;10.80;10.60;;;18.90;99.90;;;;;;5089989;28;20488;-65
2023/09/28 00:29:40;;;;;;;11.10;10.90;;;18.90;99.90;;;;;;5090669;28;20501;-66
2023/09/28 00:32:07;;;;;;;10.97;10.77;;;18.90;99.90;;;;;;5084532;28;20461;-65
2023/09/28 00:34:33;;;;;;;10.90;10.70;;;18.70;99.90;;;;;;5087960;28;20466;-66
2023/09/28 00:37:01;;;;;;;11.30;11.00;;;18.70;99.90;;;;;;5091482;28;20482;-67
2023/09/28 00:39:31;;;;;;;11.27;10.97;;;18.60;99.90;;;;;;5077247;28;20458;-66
2023/09/28 00:41:57;;;;;;;11.60;11.30;;;18.60;99.90;;;;;;5076788;28;20462;-66
2023/09/28 00:44:24;;;;;;;10.90;10.70;;;18.70;99.90;;;;;;5091063;28;20512;-66
2023/09/28 00:46:51;;;;;;;11.00;10.80;;;18.60;99.90;;;;;;5091627;28;20311;-66
2023/09/28 00:49:18;;;;;;;11.30;11.00;;;18.60;99.90;;;;;;5081796;28;20492;-66
2023/09/28 00:51:47;;;;;;;11.00;10.80;;;18.60;99.90;;;;;;5083152;28;21038;-67
2023/09/28 00:54:14;;;;;;;11.33;11.03;;;18.60;99.90;;;;;;5087275;28;20468;-66
2023/09/28 00:56:42;;;;;;;11.47;11.17;;;18.60;99.90;;;;;;5090998;28;20462;-66
2023/09/28 00:59:11;;;;;;;10.90;10.70;;;18.60;99.90;;;;;;5083314;28;20463;-66
2023/09/28 01:01:36;;;;;;;10.90;10.70;;;18.60;99.90;;;;;;5080292;28;20450;-65
2023/09/28 01:04:05;;;;;;;11.30;11.00;;;18.60;99.90;;;;;;5088398;28;20480;-66
2023/09/28 01:06:32;;;;;;;11.03;10.83;;;18.60;99.90;;;;;;5078642;28;20232;-66
2023/09/28 01:08:59;;;;;;;11.10;10.87;;;18.60;99.90;;;;;;5084691;28;20501;-67
2023/09/28 01:11:28;;;;;;;10.80;10.60;;;18.60;99.90;;;;;;5075767;28;20455;-67
2023/09/28 01:13:57;;;;;;;10.83;10.63;;;18.60;99.90;;;;;;5079178;28;20845;-66
2023/09/28 01:16:24;;;;;;;11.13;10.93;;;18.60;99.90;;;;;;5079791;28;20540;-66
2023/09/28 01:18:51;;;;;;;10.90;10.70;;;18.70;99.90;;;;;;5076105;28;20910;-66
2023/09/28 01:21:18;;;;;;;11.07;10.87;;;18.70;99.90;;;;;;5081243;28;20466;-66
2023/09/28 01:23:47;;;;;;;10.77;10.57;;;18.70;99.90;;;;;;5076798;28;20855;-66
2023/09/28 01:26:13;;;;;;;11.17;10.90;;;18.70;99.90;;;;;;5086274;28;20556;-66
2023/09/28 01:28:40;;;;;;;10.80;10.60;;;18.80;99.90;;;;;;5079824;28;20588;-67
2023/09/28 01:31:05;;;;;;;10.90;10.70;;;18.80;99.90;;;;;;5088046;28;20609;-66
2023/09/28 01:33:32;;;;;;;10.93;10.73;;;18.80;99.90;;;;;;5089331;28;20469;-66
2023/09/28 01:35:59;;;;;;;10.70;10.50;;;18.80;99.90;;;;;;5078793;28;20200;-66
2023/09/28 01:38:32;;;;;;;10.90;10.70;;;18.80;99.90;;;;;;5072794;28;20825;-67
2023/09/28 01:41:00;;;;;;;11.50;11.20;;;18.80;99.90;;;;;;5078186;28;20540;-66
2023/09/28 01:43:27;;;;;;;11.73;11.43;;;18.80;99.90;;;;;;5087271;28;20449;-67
2023/09/28 01:45:54;;;;;;;11.20;10.93;;;18.80;99.90;;;;;;5083971;28;20466;-67
2023/09/28 01:48:20;;;;;;;11.50;11.20;;;18.80;99.90;;;;;;5069081;28;20463;-66
2023/09/28 01:50:48;;;;;;;11.30;11.00;;;18.70;99.90;;;;;;5086998;28;20477;-67
2023/09/28 01:53:14;;;;;;;12.27;11.97;;;18.60;99.90;;;;;;5088046;28;20569;-66
2023/09/28 01:55:42;;;;;;;11.57;11.27;;;18.50;99.90;;;;;;5076823;28;21043;-66
2023/09/28 01:58:09;;;;;;;10.80;10.60;;;18.40;99.90;;;;;;5072464;28;20205;-67
2023/09/28 02:00:36;;;;;;;11.50;11.20;;;18.40;99.90;;;;;;5087515;28;20466;-67
2023/09/28 02:03:03;;;;;;;11.80;11.50;;;18.30;99.90;;;;;;5086012;28;20469;-67
2023/09/28 02:05:32;;;;;;;11.40;11.10;;;18.30;99.90;;;;;;5086086;28;20462;-67
2023/09/28 02:08:00;;;;;;;10.90;10.70;;;18.20;99.90;;;;;;5073276;28;20512;-67
2023/09/28 02:10:27;;;;;;;11.30;11.00;;;18.20;99.90;;;;;;5085260;28;20574;-66
2023/09/28 02:12:53;;;;;;;11.20;10.97;;;18.10;99.90;;;;;;5081409;28;20465;-66
2023/09/28 02:15:23;;;;;;;11.00;10.80;;;18.10;99.90;;;;;;5087329;28;20554;-67
2023/09/28 02:17:49;;;;;;;10.70;10.50;;;18.10;99.90;;;;;;5076514;28;20470;-66
2023/09/28 02:20:20;;;;;;;10.60;10.40;;;18.20;99.90;;;;;;5087688;28;20466;-67
2023/09/28 02:22:46;;;;;;;10.47;10.27;;;18.20;99.90;;;;;;5082791;28;20569;-67
2023/09/28 02:25:15;;;;;;;10.60;10.40;;;18.10;99.90;;;;;;5085256;28;20462;-66
2023/09/28 02:27:42;;;;;;;11.50;11.20;;;18.00;99.90;;;;;;5074289;28;20466;-66
2023/09/28 02:30:11;;;;;;;11.00;10.80;;;17.90;99.90;;;;;;5083349;28;20990;-66
2023/09/28 02:32:39;;;;;;;11.57;11.27;;;17.90;99.90;;;;;;5085548;28;20511;-66
2023/09/28 02:35:07;;;;;;;11.43;11.13;;;17.80;99.90;;;;;;5087123;28;21108;-66
2023/09/28 02:37:34;;;;;;;11.00;10.80;;;17.80;99.90;;;;;;5072767;28;20586;-66
2023/09/28 02:40:04;;;;;;;10.90;10.70;;;17.80;99.90;;;;;;5075427;28;20535;-65
2023/09/28 02:42:32;;;;;;;11.00;10.80;;;17.90;99.90;;;;;;5087119;28;20489;-66
2023/09/28 02:44:58;;;;;;;10.60;10.40;;;17.90;99.90;;;;;;5080266;28;20493;-65
2023/09/28 02:47:25;;;;;;;11.37;11.07;;;17.90;99.90;;;;;;5094579;28;20454;-67
2023/09/28 02:49:52;;;;;;;11.70;11.40;;;17.80;99.90;;;;;;5082074;28;20558;-66
2023/09/28 02:52:19;;;;;;;10.90;10.70;;;17.80;99.90;;;;;;5074927;28;20503;-67
2023/09/28 02:54:46;;;;;;;11.33;11.03;;;17.80;99.90;;;;;;5076369;28;20465;-66
2023/09/28 02:57:13;;;;;;;11.33;11.03;;;17.70;99.90;;;;;;5086017;28;20543;-66
2023/09/28 02:59:39;;;;;;;11.00;10.80;;;17.70;99.90;;;;;;5087938;28;20461;-66
2023/09/28 03:02:09;;;;;;;11.20;10.90;;;17.60;99.90;;;;;;5085638;28;20470;-66
2023/09/28 03:04:35;;;;;;;11.53;11.23;;;17.50;99.90;;;;;;5076454;28;20293;-67
2023/09/28 03:07:04;;;;;;;11.17;10.87;;;17.40;99.90;;;;;;5079227;28;20462;-66
2023/09/28 03:09:33;;;;;;;11.77;11.47;;;17.40;99.90;;;;;;5072885;28;20493;-66
2023/09/28 03:11:59;;;;;;;11.57;11.27;;;17.40;99.90;;;;;;5071038;28;20521;-66
2023/09/28 03:14:27;;;;;;;11.00;10.80;;;17.40;99.90;;;;;;5084844;28;20478;-66
2023/09/28 03:16:53;;;;;;;10.33;10.13;;;17.40;99.90;;;;;;5074711;28;20630;-66
2023/09/28 03:19:20;;;;;;;10.40;10.20;;;17.50;99.90;;;;;;5085517;28;20469;-66
2023/09/28 03:21:45;;;;;;;10.20;10.00;;;17.50;99.90;;;;;;5078585;28;20196;-67
2023/09/28 03:24:13;;;;;;;10.07;9.87;;;17.60;99.90;;;;;;5086417;28;20465;-66
2023/09/28 03:26:40;;;;;;;10.00;9.80;;;17.60;99.90;;;;;;5079880;28;20192;-66
2023/09/28 03:29:07;;;;;;;10.30;10.10;;;17.50;99.90;;;;;;5076243;28;20526;-67
2023/09/28 03:31:34;;;;;;;10.00;9.80;;;17.40;99.90;;;;;;5078307;28;20462;-67
2023/09/28 03:34:01;;;;;;;11.10;10.80;;;17.30;99.90;;;;;;5076173;28;20467;-67
2023/09/28 03:36:30;;;;;;;10.70;10.50;;;17.40;99.90;;;;;;5077981;28;20483;-66
2023/09/28 03:38:56;;;;;;;10.20;10.00;;;17.50;99.90;;;;;;5077323;28;20560;-66
2023/09/28 03:41:25;;;;;;;10.07;9.87;;;17.50;99.90;;;;;;5084664;28;20449;-66
2023/09/28 03:43:52;;;;;;;10.00;9.80;;;17.50;99.90;;;;;;5074583;28;20459;-67
2023/09/28 03:46:20;;;;;;;10.10;9.90;;;17.50;99.90;;;;;;5077527;28;20864;-67
2023/09/28 03:48:47;;;;;;;9.67;9.47;;;17.60;99.90;;;;;;5074731;28;20521;-66
2023/09/28 03:51:15;;;;;;;9.90;9.70;;;17.70;99.90;;;;;;5087215;28;21078;-65
2023/09/28 03:53:42;;;;;;;9.53;9.33;;;17.60;99.90;;;;;;5088185;28;20553;-66
2023/09/28 03:56:10;;;;;;;9.57;9.37;;;17.70;99.90;;;;;;5085947;28;20469;-66
2023/09/28 03:58:39;;;;;;;9.90;9.70;;;17.60;99.90;;;;;;5085140;28;20956;-66
2023/09/28 04:01:07;;;;;;;10.10;9.90;;;17.50;99.90;;;;;;5092575;28;20841;-65
2023/09/28 04:03:34;;;;;;;10.30;10.10;;;17.50;99.90;;;;;;5080937;28;20546;-66
2023/09/28 04:06:01;;;;;;;9.93;9.73;;;17.40;99.90;;;;;;5087445;28;21012;-67
2023/09/28 04:08:29;;;;;;;9.53;9.33;;;17.50;99.90;;;;;;5092563;28;20473;-65
2023/09/28 04:10:56;;;;;;;9.97;9.77;;;17.50;99.90;;;;;;5087229;28;20517;-67
2023/09/28 04:13:24;;;;;;;9.60;9.40;;;17.50;99.90;;;;;;5082502;28;20493;-66
2023/09/28 04:15:53;;;;;;;9.60;9.40;;;17.50;99.90;;;;;;5079839;28;20528;-67
2023/09/28 04:18:20;;;;;;;9.70;9.50;;;17.60;99.90;;;;;;5090111;28;20454;-66
2023/09/28 04:20:47;;;;;;;9.50;9.30;;;17.60;99.90;;;;;;5085972;28;20498;-66
2023/09/28 04:23:14;;;;;;;9.57;9.37;;;17.60;99.90;;;;;;5093391;28;20458;-67
2023/09/28 04:25:42;;;;;;;9.57;9.37;;;17.70;99.90;;;;;;5093018;28;20465;-66
2023/09/28 04:28:09;;;;;;;9.27;9.07;;;17.80;99.90;;;;;;5088040;28;21841;-66
2023/09/28 04:30:36;;;;;;;9.23;9.03;;;17.80;99.90;;;;;;5079400;28;20893;-66
2023/09/28 04:33:05;;;;;;;9.47;9.27;;;17.80;99.90;;;;;;5081082;28;20481;-67
2023/09/28 04:35:33;;;;;;;9.97;9.77;;;17.70;99.90;;;;;;5091431;28;20542;-65
2023/09/28 04:38:02;;;;;;;9.27;9.07;;;17.80;99.90;;;;;;5081573;28;21023;-65
2023/09/28 04:40:29;;;;;;;8.77;8.67;;;17.90;99.90;;;;;;5082821;28;21039;-65
2023/09/28 04:42:56;;;;;;;9.20;9.00;;;17.80;99.90;;;;;;5091955;28;20456;-67
2023/09/28 04:45:23;;;;;;;9.33;9.13;;;17.90;99.90;;;;;;5089499;28;20458;-65
2023/09/28 04:47:50;;;;;;;9.50;9.30;;;17.90;99.90;;;;;;5073220;28;20493;-66
2023/09/28 04:50:18;;;;;;;9.00;8.90;;;17.80;99.90;;;;;;5083387;28;20500;-66
2023/09/28 04:52:46;;;;;;;9.27;9.07;;;17.80;99.90;;;;;;5087180;28;20527;-65
2023/09/28 04:55:14;;;;;;;9.10;9.00;;;17.70;99.90;;;;;;5082354;28;20458;-66
2023/09/28 04:57:41;;;;;;;9.63;9.43;;;17.60;99.90;;;;;;5092200;28;20461;-67
2023/09/28 05:00:15;;;;;;;9.70;9.50;;;17.60;99.90;;;;;;5078115;28;20466;-67
2023/09/28 05:02:45;;;;;;;9.60;9.40;;;17.50;99.90;;;;;;5080931;28;20920;-65
2023/09/28 05:05:13;;;;;;;9.83;9.63;;;17.40;99.90;;;;;;5080912;28;20482;-67
2023/09/28 05:07:42;;;;;;;10.03;9.83;;;17.30;99.90;;;;;;5083075;28;20461;-66
2023/09/28 05:10:10;;;;;;;10.13;9.93;;;17.20;99.90;;;;;;5082036;28;20477;-65
2023/09/28 05:12:36;;;;;;;9.90;9.70;;;17.10;99.90;;;;;;5078887;28;20458;-66
2023/09/28 05:15:03;;;;;;;10.50;10.30;;;17.10;99.90;;;;;;5071275;28;20471;-66
2023/09/28 05:17:31;;;;;;;10.40;10.20;;;16.90;99.90;;;;;;5082547;28;20550;-67
2023/09/28 05:19:58;;;;;;;10.23;10.03;;;16.90;99.90;;;;;;5084993;28;20861;-67
2023/09/28 05:22:26;;;;;;;10.20;10.00;;;16.90;99.90;;;;;;5082865;28;20956;-67
2023/09/28 05:24:54;;;;;;;9.20;9.00;;;16.90;99.90;;;;;;5081413;28;20465;-66
2023/09/28 05:27:22;;;;;;;9.43;9.23;;;17.00;99.90;;;;;;5075961;28;21092;-67
2023/09/28 05:29:49;;;;;;;8.73;8.63;;;16.90;99.90;;;;;;5077943;28;20493;-66
2023/09/28 05:32:16;;;;;;;8.90;8.80;;;16.90;99.90;;;;;;5072238;28;20554;-66
2023/09/28 05:34:42;;;;;;;9.13;8.93;;;16.90;99.90;;;;;;5076928;28;21201;-66
2023/09/28 05:37:09;;;;;;;9.33;9.13;;;16.80;99.90;;;;;;5078959;28;20688;-65
2023/09/28 05:39:37;;;;;;;9.33;9.13;;;16.70;99.90;;;;;;5074574;28;20467;-66
2023/09/28 05:42:07;;;;;;;8.10;8.00;;;16.70;99.90;;;;;;5074455;28;20459;-66
2023/09/28 05:44:34;;;;;;;8.00;7.90;;;16.80;99.90;;;;;;5080158;28;20465;-66
2023/09/28 05:47:02;;;;;;;8.63;8.53;;;16.80;99.90;;;;;;5083506;28;20454;-65
2023/09/28 05:49:29;;;;;;;8.00;7.90;;;16.80;99.90;;;;;;5077837;28;20983;-66
2023/09/28 05:51:56;;;;;;;8.40;8.30;;;16.80;99.90;;;;;;5074085;28;20500;-66
2023/09/28 05:54:26;;;;;;;8.10;8.00;;;16.80;99.90;;;;;;5083618;28;20454;-67
2023/09/28 05:56:52;;;;;;;8.00;7.90;;;16.70;99.90;;;;;;5073617;28;20991;-66
2023/09/28 05:59:22;;;;;;;8.43;8.33;;;16.60;99.90;;;;;;5073903;28;20976;-66
2023/09/28 06:01:49;;;;;;;7.93;7.83;;;16.60;99.90;;;;;;5078572;28;20458;-67
2023/09/28 06:04:16;;;;;;;7.97;7.87;;;16.60;99.90;;;;;;5080972;28;20478;-66
2023/09/28 06:06:43;;;;;;;7.70;7.60;;;16.60;99.90;;;;;;5074498;28;20455;-66
2023/09/28 06:09:10;;;;;;;7.17;7.07;;;16.70;99.90;;;;;;5078148;28;20471;-66
2023/09/28 06:11:36;;;;;;;6.50;6.40;;;16.80;99.90;;;;;;5080521;28;20485;-66
2023/09/28 06:14:03;;;;;;;6.97;6.87;;;16.80;99.90;;;;;;5076860;28;20543;-66
2023/09/28 06:16:36;;;;;;;6.90;6.80;;;16.80;99.90;;;;;;5083581;28;20463;-65
2023/09/28 06:19:03;;;;;;;6.97;6.87;;;16.80;99.90;;;;;;5086753;28;20484;-67
2023/09/28 06:21:30;;;;;;;7.20;7.10;;;16.70;99.90;;;;;;5081008;28;20447;-66
2023/09/28 06:23:57;;;;;;;6.90;6.80;;;16.60;99.90;;;;;;5075561;28;20461;-68
2023/09/28 06:26:24;;;;;;;7.43;7.33;;;16.70;99.90;;;;;;5080732;28;20956;-65
2023/09/28 06:28:51;;;;;;;6.73;6.63;;;16.70;99.90;;;;;;5075065;28;20525;-65
2023/09/28 06:31:19;;;;;;;6.90;6.80;;;16.80;99.90;;;;;;5075872;28;20486;-66
2023/09/28 06:33:48;;;;;;;7.83;7.73;;;16.90;99.90;;;;;;5075850;28;20467;-65
2023/09/28 06:36:15;;;;;;;7.20;7.10;;;16.90;99.90;;;;;;5069717;28;20482;-67
2023/09/28 06:38:42;;;;;;;7.10;7.00;;;16.90;99.90;;;;;;5080317;28;20520;-66
2023/09/28 06:41:09;;;;;;;6.90;6.80;;;16.90;99.90;;;;;;5084800;28;20831;-66
2023/09/28 06:43:36;;;;;;;7.60;7.50;;;16.90;99.90;;;;;;5070993;28;20462;-66
2023/09/28 06:46:04;;;;;;;8.07;7.97;;;16.80;99.90;;;;;;5077859;28;20454;-66
2023/09/28 06:48:33;;;;;;;7.70;7.60;;;16.90;99.90;;;;;;5073590;28;20704;-66
2023/09/28 06:51:01;;;;;;;7.60;7.50;;;17.00;99.90;;;;;;5072966;28;20579;-65
2023/09/28 06:53:28;;;;;;;7.80;7.70;;;17.00;99.90;;;;;;5072440;28;20454;-65
2023/09/28 06:55:59;;;;;;;7.60;7.50;;;17.10;99.90;;;;;;5078111;28;20531;-66
2023/09/28 06:58:26;;;;;;;7.90;7.80;;;17.20;99.90;;;;;;5077594;28;20459;-66
2023/09/28 07:00:53;;;;;;;7.50;7.40;;;17.30;99.90;;;;;;5072600;28;20481;-66
2023/09/28 07:03:21;;;;;;;7.60;7.50;;;17.40;99.90;;;;;;5074570;28;20482;-66
2023/09/28 07:05:48;;;;;;;7.43;7.33;;;17.40;99.90;;;;;;5074259;28;20558;-67
2023/09/28 07:08:17;;;;;;;7.47;7.37;;;17.50;99.90;;;;;;5075371;28;20486;-66
2023/09/28 07:10:44;;;;;;;7.23;7.13;;;17.60;99.90;;;;;;5075891;28;20577;-66
2023/09/28 07:13:12;;;;;;;7.13;7.03;;;17.70;99.90;;;;;;5078984;28;20439;-65
2023/09/28 07:15:40;;;;;;;7.20;7.10;;;17.80;99.90;;;;;;5067996;28;20466;-66
2023/09/28 07:18:07;;;;;;;7.10;7.00;;;18.00;99.90;;;;;;5077366;28;20966;-65
2023/09/28 07:20:36;;;;;;;7.13;7.03;;;18.10;99.90;;;;;;5072053;28;20469;-67
2023/09/28 07:23:03;;;;;;;7.57;7.47;;;18.20;99.90;;;;;;5079549;28;20561;-66
2023/09/28 07:25:31;;;;;;;7.80;7.70;;;18.50;99.90;;;;;;5076542;28;20458;-67
2023/09/28 07:27:57;;;;;;;8.43;8.33;;;18.80;99.90;;;;;;5074910;28;20458;-66
2023/09/28 07:30:25;;;;;;;8.50;8.40;;;19.00;99.90;;;;;;5058153;28;20504;-65
2023/09/28 07:32:52;;;;;;;8.80;8.70;;;19.20;99.90;;;;;;5056943;28;20467;-65
2023/09/28 07:35:20;;;;;;;9.00;8.90;;;19.40;99.90;;;;;;5057805;28;20832;-65
2023/09/28 07:37:47;;;;;;;9.53;9.33;;;19.60;99.90;;;;;;5056928;28;20491;-67
2023/09/28 07:40:17;;;;;;;10.17;9.97;;;19.70;99.90;;;;;;5050990;28;20890;-66
2023/09/28 07:42:45;;;;;;;9.27;9.07;;;19.50;99.90;;;;;;5049844;28;20467;-66
2023/09/28 07:45:13;;;;;;;9.60;9.40;;;19.40;99.90;;;;;;5056204;28;20459;-66
2023/09/28 07:47:40;;;;;;;9.50;9.30;;;19.50;99.90;;;;;;5059773;28;20831;-66
2023/09/28 07:50:11;;;;;;;9.30;9.10;;;19.60;99.90;;;;;;5053677;28;20498;-65
2023/09/28 07:52:38;;;;;;;9.83;9.63;;;19.60;99.90;;;;;;5054512;28;20522;-66
2023/09/28 07:55:07;;;;;;;9.70;9.50;;;19.80;99.90;;;;;;5056221;28;20495;-67
2023/09/28 07:57:35;;;;;;;10.37;10.17;;;19.90;99.90;;;;;;5053892;28;21001;-66
2023/09/28 08:00:06;;;;;;;10.17;9.97;;;19.90;99.90;;;;;;5049535;28;20466;-66
2023/09/28 08:02:33;;;;;;;10.53;10.33;;;20.00;99.90;;;;;;5063078;28;20888;-65
2023/09/28 08:05:01;;;;;;;10.40;10.20;;;19.80;99.90;;;;;;5058033;28;20455;-67
2023/09/28 08:07:30;;;;;;;10.27;10.07;;;19.90;99.90;;;;;;5054228;28;21813;-66
2023/09/28 08:09:58;;;;;;;10.20;10.00;;;19.90;99.90;;;;;;5053188;28;20464;-67
2023/09/28 08:12:26;;;;;;;10.20;10.00;;;19.90;99.90;;;;;;5059617;28;21097;-66
2023/09/28 08:14:53;;;;;;;10.87;10.60;;;19.90;99.90;;;;;;5056970;28;20458;-66
2023/09/28 08:17:21;;;;;;;11.20;10.90;;;19.80;99.90;;;;;;5061094;28;20538;-65
2023/09/28 08:19:49;;;;;;;11.00;10.70;;;19.80;99.90;;;;;;5065470;28;20454;-66
2023/09/28 08:22:15;;;;;;;11.60;11.30;;;19.80;99.90;;;;;;5058342;28;20459;-66
2023/09/28 08:24:43;;;;;;;11.50;11.20;;;20.00;99.90;;;;;;5059207;28;20844;-66
2023/09/28 08:27:09;;;;;;;11.43;11.13;;;19.90;99.90;;;;;;5057281;28;20462;-66
2023/09/28 08:29:37;;;;;;;11.60;11.30;;;19.90;99.90;;;;;;5069441;28;20490;-66
2023/09/28 08:32:04;;;;;;;11.83;11.53;;;20.00;99.90;;;;;;5080592;28;20492;-66
2023/09/28 08:34:34;;;;;;;11.70;11.40;;;20.20;99.90;;;;;;5081100;28;20821;-67
2023/09/28 08:37:03;;;;;;;11.80;11.50;;;20.20;99.90;;;;;;5085907;28;21239;-67
2023/09/28 08:39:30;;;;;;;12.17;11.87;;;20.20;99.90;;;;;;5078854;28;20460;-67
2023/09/28 08:42:01;;;;;;;12.03;11.73;;;20.30;99.90;;;;;;5078011;28;20466;-66
2023/09/28 08:44:31;;;;;;;12.10;11.80;;;20.30;99.90;;;;;;5084143;28;20486;-67
2023/09/28 08:46:59;;;;;;;12.20;11.90;;;20.30;99.90;;;;;;5078379;28;21016;-67
2023/09/28 08:49:27;;;;;;;12.23;11.93;;;20.40;99.90;;;;;;5079480;28;20480;-66
2023/09/28 08:51:57;;;;;;;12.63;12.33;;;20.40;99.90;;;;;;5078967;28;20908;-67
2023/09/28 08:54:24;;;;;;;12.23;11.93;;;20.50;99.90;;;;;;5084109;28;20485;-66
2023/09/28 08:56:54;;;;;;;12.10;11.80;;;20.70;99.90;;;;;;5085084;28;20541;-67
2023/09/28 08:59:23;;;;;;;12.87;12.47;;;20.80;99.90;;;;;;5071138;28;20903;-66
2023/09/28 09:01:52;;;;;;;12.43;12.13;;;20.90;99.90;;;;;;5082688;28;20937;-66
2023/09/28 09:04:20;;;;;;;12.40;12.10;;;21.00;99.90;;;;;;5088527;28;20454;-66
2023/09/28 09:06:48;;;;;;;13.07;12.67;;;21.20;99.90;;;;;;5079740;28;20469;-67
2023/09/28 09:09:20;;;;;;;13.00;12.60;;;21.40;99.90;;;;;;5087491;28;20515;-66
2023/09/28 09:11:51;;;;;;;12.50;12.20;;;21.50;99.90;;;;;;5079475;28;20478;-67
2023/09/28 09:14:18;;;;;;;12.80;12.40;;;21.60;99.90;;;;;;5079109;28;20462;-66
2023/09/28 09:16:45;;;;;;;13.00;12.60;;;21.70;99.90;;;;;;5073179;28;20463;-66
2023/09/28 09:19:14;;;;;;;13.00;12.60;;;21.90;99.90;;;;;;5078346;28;20867;-67
2023/09/28 09:21:43;;;;;;;13.30;12.90;;;22.00;99.90;;;;;;5084870;28;20453;-66
2023/09/28 09:24:12;;;;;;;12.90;12.50;;;22.20;99.90;;;;;;5087455;28;20500;-67
2023/09/28 09:26:42;;;;;;;12.90;12.50;;;22.10;99.90;;;;;;5084577;28;20814;-67
2023/09/28 09:29:10;;;;;;;12.60;12.20;;;22.10;99.90;;;;;;5076395;28;20486;-66
2023/09/28 09:31:39;;;;;;;13.30;12.90;;;22.30;99.90;;;;;;5076827;28;20501;-66
2023/09/28 09:34:06;;;;;;;12.87;12.47;;;22.40;99.90;;;;;;5074584;28;20998;-67
2023/09/28 09:36:34;;;;;;;13.23;12.83;;;22.50;99.90;;;;;;5081321;28;20480;-67
2023/09/28 09:39:01;;;;;;;12.90;12.50;;;23.10;99.90;;;;;;5078338;28;20463;-67
2023/09/28 09:41:30;;;;;;;13.00;12.60;;;23.50;99.90;;;;;;5083893;28;20964;-68
2023/09/28 09:43:59;;;;;;;12.90;12.50;;;23.60;99.90;;;;;;5085705;28;20461;-66
2023/09/28 09:46:27;;;;;;;12.80;12.40;;;23.20;99.90;;;;;;5078939;28;20479;-68
2023/09/28 09:48:56;;;;;;;13.00;12.60;;;23.30;99.90;;;;;;5077592;28;20516;-67
2023/09/28 09:51:24;;;;;;;12.90;12.50;;;23.30;99.90;;;;;;5075204;28;20873;-68
2023/09/28 09:53:51;;;;;;;13.20;12.80;;;23.40;99.90;;;;;;5074857;28;20533;-67
2023/09/28 09:56:18;;;;;;;13.50;13.10;;;23.50;99.90;;;;;;5083849;28;20480;-67
2023/09/28 09:58:48;;;;;;;13.17;12.77;;;24.00;99.90;;;;;;5078129;28;20454;-67
2023/09/28 10:01:17;;;;;;;13.40;13.00;;;24.20;99.90;;;;;;5074747;28;20495;-66
2023/09/28 10:03:47;;;;;;;13.57;13.17;;;24.20;99.90;;;;;;5077499;28;20527;-66
2023/09/28 10:06:17;;;;;;;13.40;13.00;;;24.30;99.90;;;;;;5074925;28;20474;-67
2023/09/28 10:08:45;;;;;;;13.40;13.00;;;24.10;99.90;;;;;;5083509;28;20465;-68
2023/09/28 10:11:13;;;;;;;13.63;13.23;;;23.90;99.90;;;;;;5078778;28;20898;-66
2023/09/28 10:13:41;;;;;;;13.50;13.10;;;23.70;99.90;;;;;;5083398;28;20451;-67
2023/09/28 10:16:12;;;;;;;13.70;13.30;;;23.40;99.90;;;;;;5081334;28;20458;-67
2023/09/28 10:18:44;;;;;;;13.50;13.10;;;23.60;99.90;;;;;;5078182;28;20968;-67
2023/09/28 10:21:14;;;;;;;13.23;12.83;;;23.60;99.90;;;;;;5083542;28;20489;-66
2023/09/28 10:23:42;;;;;;;13.60;13.20;;;23.70;99.90;;;;;;5072640;28;20470;-67
2023/09/28 10:26:14;;;;;;;13.70;13.30;;;23.80;99.90;;;;;;5076212;28;20467;-67
2023/09/28 10:29:01;;;;;;;13.40;13.00;;;23.80;99.90;;;;;;5078274;28;20549;-66
2023/09/28 10:31:30;;;;;;;13.90;13.50;;;23.90;99.90;;;;;;5078370;28;20544;-67
2023/09/28 10:34:03;;;;;;;14.00;13.60;;;24.10;99.90;;;;;;5079008;28;20474;-67
2023/09/28 10:36:30;;;;;;;13.63;13.23;;;24.50;99.90;;;;;;5084477;28;20473;-67
2023/09/28 10:39:09;;;;;;;13.80;13.40;;;24.00;99.90;;;;;;5083473;28;20664;-67
2023/09/28 10:41:37;;;;;;;14.50;14.00;;;24.60;99.90;;;;;;5074735;28;20572;-67
2023/09/28 10:44:12;;;;;;;14.67;14.17;;;25.20;99.90;;;;;;5082393;28;20485;-67
2023/09/28 10:46:40;;;;;;;14.40;13.90;;;25.10;99.90;;;;;;5083191;28;20495;-67
2023/09/28 10:49:08;;;;;;;14.13;13.67;;;24.70;99.90;;;;;;5078722;28;20469;-67
2023/09/28 10:51:35;;;;;;;14.37;13.87;;;25.10;99.90;;;;;;5076843;28;20476;-67
2023/09/28 10:54:04;;;;;;;14.63;14.13;;;25.60;99.90;;;;;;5078477;28;20457;-67
2023/09/28 10:56:31;;;;;;;14.63;14.13;;;26.20;99.90;;;;;;5071817;28;20733;-67
2023/09/28 10:59:00;;;;;;;14.97;14.47;;;26.20;99.90;;;;;;5076613;28;20952;-67
2023/09/28 11:01:27;;;;;;;14.80;14.30;;;26.20;99.90;;;;;;5072289;28;20471;-67
2023/09/28 11:03:55;;;;;;;14.73;14.23;;;25.60;99.90;;;;;;5069701;28;20507;-68
2023/09/28 11:06:25;;;;;;;14.97;14.47;;;25.30;99.90;;;;;;5084016;28;20512;-68
2023/09/28 11:08:52;;;;;;;14.27;13.87;;;25.10;99.90;;;;;;5077335;28;20462;-67
2023/09/28 11:11:21;;;;;;;14.10;13.70;;;24.90;99.90;;;;;;5075607;28;20459;-67
2023/09/28 11:13:49;;;;;;;14.00;13.60;;;24.90;99.90;;;;;;5078044;28;20473;-67
2023/09/28 11:16:18;;;;;;;14.17;13.77;;;24.70;99.90;;;;;;5086525;28;20470;-68
2023/09/28 11:18:46;;;;;;;13.83;13.43;;;24.80;99.90;;;;;;5065379;28;20843;-67
2023/09/28 11:21:13;;;;;;;13.70;13.30;;;24.90;99.90;;;;;;5078425;28;20564;-67
2023/09/28 11:23:41;;;;;;;13.30;12.90;;;25.00;99.90;;;;;;5078566;28;20450;-67
2023/09/28 11:26:11;;;;;;;14.00;13.60;;;25.30;99.90;;;;;;5082986;28;20445;-67
2023/09/28 11:28:38;;;;;;;13.70;13.30;;;25.40;99.90;;;;;;5071888;28;20481;-67
2023/09/28 11:31:09;;;;;;;13.60;13.20;;;25.40;99.90;;;;;;5074390;28;20457;-67
2023/09/28 11:33:36;;;;;;;13.90;13.50;;;25.20;99.90;;;;;;5080231;28;20491;-67
2023/09/28 11:36:04;;;;;;;14.20;13.80;;;25.40;99.90;;;;;;5073554;28;20807;-67
2023/09/28 11:38:31;;;;;;;14.03;13.63;;;25.50;99.90;;;;;;5080320;28;20930;-67
2023/09/28 11:41:02;;;;;;;14.50;14.00;;;25.10;99.90;;;;;;5086335;28;20465;-67
2023/09/28 11:43:32;;;;;;;13.60;13.20;;;25.20;99.90;;;;;;5084138;28;20890;-68
2023/09/28 11:46:00;;;;;;;13.40;13.00;;;24.90;99.90;;;;;;5071723;28;20950;-68
2023/09/28 11:48:27;;;;;;;13.50;13.10;;;24.80;99.90;;;;;;5076589;28;20553;-68
2023/09/28 11:50:54;;;;;;;13.80;13.40;;;25.10;99.90;;;;;;5076769;28;20485;-67
2023/09/28 11:53:21;;;;;;;13.60;13.20;;;25.00;99.90;;;;;;5085752;28;20486;-68
2023/09/28 11:55:49;;;;;;;13.73;13.33;;;24.90;99.90;;;;;;5079561;28;20832;-68
2023/09/28 11:58:21;;;;;;;13.90;13.50;;;25.50;99.90;;;;;;5081166;28;20489;-67
2023/09/28 12:00:49;;;;;;;13.90;13.50;;;25.60;99.90;;;;;;5068758;28;20469;-67
2023/09/28 12:03:16;;;;;;;13.80;13.40;;;25.80;99.90;;;;;;5078542;28;20473;-67
2023/09/28 12:05:43;;;;;;;13.73;13.33;;;26.20;99.90;;;;;;5083035;28;20813;-67
2023/09/28 12:08:10;;;;;;;14.30;13.90;;;26.80;99.90;;;;;;5085947;28;20966;-67
2023/09/28 12:10:38;;;;;;;14.03;13.63;;;26.50;99.90;;;;;;5079579;28;20471;-67
2023/09/28 12:13:06;;;;;;;14.80;14.30;;;26.80;99.90;;;;;;5079725;28;20492;-67
2023/09/28 12:15:37;;;;;;;14.50;14.00;;;26.90;99.90;;;;;;5082296;28;20548;-68
2023/09/28 12:18:05;;;;;;;14.10;13.70;;;27.00;99.90;;;;;;5076724;28;20984;-67
2023/09/28 12:20:33;;;;;;;14.30;13.90;;;27.10;99.90;;;;;;5087213;28;20461;-67
2023/09/28 12:22:59;;;;;;;14.63;14.13;;;27.10;99.90;;;;;;5082439;28;20463;-67
2023/09/28 12:25:28;;;;;;;14.23;13.83;;;27.00;99.90;;;;;;5086690;28;20457;-68
2023/09/28 12:27:57;;;;;;;14.70;14.20;;;27.00;99.90;;;;;;5081708;28;20457;-67
2023/09/28 12:30:24;;;;;;;14.43;14.03;;;27.30;99.90;;;;;;5076933;28;20866;-67
2023/09/28 12:32:54;;;;;;;14.23;13.83;;;27.40;99.90;;;;;;5077678;28;21050;-68
2023/09/28 12:35:21;;;;;;;14.33;13.93;;;27.10;99.90;;;;;;5081801;28;20458;-68